Palm Springs (PSP/KPSP)

Information

Location
Palm Springs, CA
Local Time
22:33 / 10:33 pm
GMT Time
06:33 / 6:33 am
Gates
Unassigned
No FAA reported delays
METAR KPSP 220553Z 00000KT 10SM CLR 18/11 A3012 RMK AO2 SLP200 T01780106 10239 20172 58006
TAF KPSP 220520Z 2206/2306 VRB06KT P6SM SCT100 BKN200 FM230000 32016G24KT P6SM SCT200
  • No charts available